createdAt,value
2019-04-30T00:01:07.464Z,38.67
2019-04-30T00:03:55.690Z,38.63
2019-04-30T00:06:27.346Z,40.70
2019-04-30T00:08:55.051Z,37.00
2019-04-30T00:11:27.295Z,43.67
2019-04-30T00:13:58.892Z,37.87
2019-04-30T00:16:31.090Z,41.07
2019-04-30T00:19:00.892Z,32.25
2019-04-30T00:21:28.694Z,37.28
2019-04-30T00:24:00.816Z,33.75
2019-04-30T00:26:28.304Z,35.73
2019-04-30T00:28:56.893Z,30.37
2019-04-30T00:31:28.347Z,34.03
2019-04-30T00:34:01.149Z,37.55
2019-04-30T00:36:33.864Z,33.87
2019-04-30T00:38:57.874Z,34.43
2019-04-30T00:41:30.156Z,40.58
2019-04-30T00:43:58.930Z,34.25
2019-04-30T00:46:29.441Z,41.58
2019-04-30T00:49:08.858Z,37.60
2019-04-30T00:51:29.492Z,40.00
2019-04-30T00:53:58.380Z,36.97
2019-04-30T00:56:28.331Z,44.95
2019-04-30T00:58:57.739Z,35.05
2019-04-30T01:01:29.147Z,38.60
2019-04-30T01:04:02.355Z,39.15
2019-04-30T01:06:31.220Z,37.07
2019-04-30T01:09:05.371Z,37.67
2019-04-30T01:11:31.865Z,36.68
2019-04-30T01:14:00.958Z,40.73
2019-04-30T01:16:32.867Z,41.77
2019-04-30T01:19:01.136Z,41.63
2019-04-30T01:21:31.110Z,44.60
2019-04-30T01:24:00.207Z,36.17
2019-04-30T01:26:31.150Z,38.87
2019-04-30T01:29:02.068Z,41.80
2019-04-30T01:31:37.096Z,48.50
2019-04-30T01:34:05.215Z,44.65
2019-04-30T01:36:32.026Z,44.80
2019-04-30T01:39:01.118Z,36.80
2019-04-30T01:41:31.558Z,43.07
2019-04-30T01:44:03.766Z,41.30
2019-04-30T01:46:32.111Z,44.83
2019-04-30T01:49:01.280Z,38.10
2019-04-30T01:51:30.475Z,45.03
2019-04-30T01:53:59.507Z,35.30
2019-04-30T01:56:30.122Z,38.87
2019-04-30T01:59:00.711Z,44.03
2019-04-30T02:01:31.333Z,41.73
2019-04-30T02:04:00.347Z,43.80
2019-04-30T02:06:29.444Z,42.53
2019-04-30T02:08:59.352Z,40.17
2019-04-30T02:11:29.682Z,43.40
2019-04-30T02:13:59.900Z,41.95
2019-04-30T02:16:29.085Z,42.17
2019-04-30T02:18:59.700Z,35.90
2019-04-30T02:21:30.064Z,36.07
2019-04-30T02:23:59.061Z,36.15
2019-04-30T02:26:28.627Z,35.43
2019-04-30T02:28:59.435Z,38.78
2019-04-30T02:31:30.818Z,36.35
2019-04-30T02:34:22.339Z,30.53
2019-04-30T02:36:55.538Z,34.78
2019-04-30T02:39:24.440Z,34.35
2019-04-30T02:42:05.298Z,36.93
2019-04-30T02:44:35.619Z,34.80
2019-04-30T02:47:07.074Z,33.10
2019-04-30T02:49:39.663Z,36.67
2019-04-30T02:52:09.302Z,37.17
2019-04-30T02:54:40.802Z,40.17
2019-04-30T02:57:11.596Z,36.60
2019-04-30T03:00:00.152Z,39.20
2019-04-30T03:02:29.921Z,35.93
2019-04-30T03:05:00.210Z,39.53
2019-04-30T03:07:29.618Z,37.45
2019-04-30T03:09:59.845Z,39.25
2019-04-30T03:12:33.106Z,38.75
2019-04-30T03:15:00.404Z,45.93
2019-04-30T03:17:31.120Z,40.87
2019-04-30T03:20:03.467Z,37.93
2019-04-30T03:22:32.273Z,48.20
2019-04-30T03:25:01.286Z,40.07
2019-04-30T03:27:30.341Z,43.53
2019-04-30T03:30:00.111Z,43.68
2019-04-30T03:32:31.662Z,45.40
2019-04-30T03:35:03.188Z,43.05
2019-04-30T03:37:30.115Z,40.85
2019-04-30T03:40:00.630Z,41.88
2019-04-30T03:42:29.562Z,41.42
2019-04-30T03:44:59.273Z,38.23
2019-04-30T03:47:29.980Z,36.33
2019-04-30T03:49:59.970Z,34.77
2019-04-30T03:52:29.394Z,37.25
2019-04-30T03:55:02.425Z,42.35
2019-04-30T03:57:30.327Z,43.77
2019-04-30T03:59:59.482Z,42.50
2019-04-30T04:02:30.310Z,44.70
2019-04-30T04:05:03.887Z,57.67
2019-04-30T04:07:53.020Z,50.23
2019-04-30T04:10:35.576Z,51.20
2019-04-30T04:13:04.124Z,50.95
2019-04-30T04:15:33.034Z,46.80
2019-04-30T04:18:01.924Z,39.63
2019-04-30T04:20:30.486Z,42.53
2019-04-30T04:23:05.465Z,35.70
2019-04-30T04:25:36.046Z,30.17
2019-04-30T04:28:06.162Z,31.43
2019-04-30T04:30:35.666Z,32.75
2019-04-30T04:33:05.812Z,26.87
2019-04-30T04:35:49.554Z,31.33
2019-04-30T04:38:20.659Z,30.50
2019-04-30T04:40:50.990Z,36.97
2019-04-30T04:43:20.251Z,34.33
2019-04-30T04:48:49.201Z,34.83
2019-04-30T04:51:33.256Z,30.10
2019-04-30T04:53:46.255Z,38.10
2019-04-30T04:56:15.148Z,42.75
2019-04-30T04:58:44.035Z,37.45
2019-04-30T05:01:12.617Z,33.57
2019-04-30T05:03:41.505Z,35.73
2019-04-30T05:06:11.814Z,35.13
2019-04-30T05:08:41.746Z,30.27
2019-04-30T05:11:10.532Z,33.23
2019-04-30T05:13:39.416Z,38.33
2019-04-30T05:16:09.191Z,38.07
2019-04-30T05:18:39.114Z,29.57
2019-04-30T05:21:08.826Z,38.60
2019-04-30T05:23:41.068Z,40.50
2019-04-30T05:26:08.437Z,46.95
2019-04-30T05:28:39.365Z,42.75
2019-04-30T05:31:08.799Z,34.57
2019-04-30T05:33:39.085Z,27.07
2019-04-30T05:36:09.334Z,28.07
2019-04-30T05:38:39.166Z,25.57
2019-04-30T05:41:09.287Z,27.50
2019-04-30T05:43:38.786Z,26.30
2019-04-30T05:46:08.357Z,24.52
2019-04-30T05:48:39.599Z,18.20
2019-04-30T05:51:08.988Z,21.97
2019-04-30T05:53:39.405Z,18.60
2019-04-30T05:56:09.434Z,18.67
2019-04-30T05:58:39.752Z,19.77
2019-04-30T06:01:09.712Z,17.30
2019-04-30T06:03:39.214Z,20.75
2019-04-30T06:06:08.794Z,17.57
2019-04-30T06:09:04.615Z,17.70
2019-04-30T06:11:43.256Z,22.87
2019-04-30T06:14:22.492Z,23.13
2019-04-30T06:17:11.038Z,17.57
2019-04-30T06:19:39.639Z,20.17
2019-04-30T06:22:10.773Z,17.55
2019-04-30T06:24:39.593Z,19.48
2019-04-30T06:27:10.594Z,19.75
2019-04-30T06:29:39.390Z,18.85
2019-04-30T06:32:08.683Z,19.87
2019-04-30T06:34:41.638Z,19.67
2019-04-30T06:37:09.729Z,17.06
2019-04-30T06:39:39.230Z,19.57
2019-04-30T06:42:12.667Z,21.68
2019-04-30T06:44:41.673Z,19.05
2019-04-30T06:47:09.890Z,22.77
2019-04-30T06:49:39.435Z,24.98
2019-04-30T06:52:19.635Z,20.02
2019-04-30T06:54:39.748Z,19.55
2019-04-30T06:57:09.676Z,23.18
2019-04-30T06:59:40.183Z,20.45
2019-04-30T07:02:09.242Z,20.70
2019-04-30T07:04:40.018Z,20.10
2019-04-30T07:07:09.170Z,22.48
2019-04-30T07:09:58.298Z,20.82
2019-04-30T07:12:44.560Z,24.43
2019-04-30T07:15:13.719Z,21.85
2019-04-30T07:17:43.054Z,25.48
2019-04-30T07:20:11.634Z,23.87
2019-04-30T07:22:48.907Z,23.57
2019-04-30T07:25:10.850Z,26.00
2019-04-30T07:27:40.136Z,22.27
2019-04-30T07:30:10.075Z,26.10
2019-04-30T07:32:39.269Z,21.17
2019-04-30T07:35:09.503Z,17.77
2019-04-30T07:37:39.147Z,19.40
2019-04-30T07:40:09.141Z,20.85
2019-04-30T07:42:44.426Z,24.87
2019-04-30T07:45:09.645Z,20.37
2019-04-30T07:47:39.698Z,20.72
2019-04-30T07:50:10.622Z,19.75
2019-04-30T07:55:09.892Z,25.72
2019-04-30T07:57:40.396Z,28.60
2019-04-30T08:00:09.721Z,27.13
2019-04-30T08:02:43.545Z,32.45
2019-04-30T08:05:12.455Z,29.98
2019-04-30T08:07:41.388Z,27.95
2019-04-30T08:09:35.523Z,22.22
2019-04-30T08:10:10.615Z,30.00
2019-04-30T08:12:43.161Z,29.30
2019-04-30T08:15:10.551Z,32.93
2019-04-30T08:17:39.128Z,36.93
2019-04-30T08:20:08.799Z,41.80
2019-04-30T08:22:40.897Z,46.88
2019-04-30T08:25:09.711Z,59.70
2019-04-30T08:27:39.910Z,56.60
2019-04-30T08:30:20.748Z,55.00
2019-04-30T08:32:39.213Z,60.10
2019-04-30T08:35:09.927Z,53.38
2019-04-30T08:37:39.658Z,54.35
2019-04-30T08:40:08.769Z,53.68
2019-04-30T08:42:39.749Z,53.65
2019-04-30T08:45:09.503Z,54.97
2019-04-30T08:47:39.230Z,57.07
2019-04-30T08:50:09.764Z,55.98
2019-04-30T08:52:39.498Z,53.50
2019-04-30T08:55:15.962Z,54.10
2019-04-30T08:57:39.579Z,48.50
2019-04-30T09:00:09.220Z,52.80
2019-04-30T09:02:39.511Z,57.70
2019-04-30T09:05:12.701Z,53.03
2019-04-30T09:07:41.279Z,51.28
2019-04-30T09:10:10.366Z,45.67
2019-04-30T09:12:39.960Z,48.92
2019-04-30T09:15:09.199Z,39.10
2019-04-30T09:17:38.566Z,39.25
2019-04-30T09:20:09.148Z,43.50
2019-04-30T09:22:39.357Z,34.05
2019-04-30T09:25:09.566Z,33.85
2019-04-30T09:27:39.744Z,33.33
2019-04-30T09:30:10.331Z,37.35
2019-04-30T09:32:39.079Z,37.85
2019-04-30T09:35:09.542Z,31.53
2019-04-30T09:37:41.772Z,24.45
2019-04-30T09:40:18.259Z,29.87
2019-04-30T09:42:40.702Z,29.53
2019-04-30T09:45:09.366Z,28.00
2019-04-30T09:47:41.887Z,20.02
2019-04-30T09:50:10.827Z,29.42
2019-04-30T09:52:39.930Z,25.82
2019-04-30T09:55:09.631Z,27.58
2019-04-30T09:57:39.234Z,20.10
2019-04-30T10:00:12.759Z,28.38
2019-04-30T10:02:41.722Z,32.70
2019-04-30T10:05:11.597Z,24.10
2019-04-30T10:07:41.238Z,28.38
2019-04-30T10:10:12.178Z,26.25
2019-04-30T10:12:40.762Z,24.12
2019-04-30T10:15:11.232Z,20.17
2019-04-30T10:17:41.915Z,22.65
2019-04-30T10:20:11.834Z,21.73
2019-04-30T10:22:41.029Z,32.85
2019-04-30T10:25:10.532Z,37.67
2019-04-30T10:27:39.740Z,22.27
2019-04-30T10:30:09.456Z,22.60
2019-04-30T10:32:38.426Z,26.33
2019-04-30T10:35:07.523Z,26.70
2019-04-30T10:37:38.519Z,21.60
2019-04-30T10:40:10.297Z,23.13
2019-04-30T10:42:39.343Z,23.40
2019-04-30T10:45:09.833Z,26.57
2019-04-30T10:47:39.441Z,22.57
2019-04-30T10:50:11.731Z,26.05
2019-04-30T10:52:40.702Z,28.80
2019-04-30T10:55:09.499Z,25.82
2019-04-30T10:57:40.327Z,25.82
2019-04-30T11:00:18.787Z,23.50
2019-04-30T11:02:49.545Z,28.12
2019-04-30T11:05:18.839Z,27.40
2019-04-30T11:07:49.516Z,22.15
2019-04-30T11:10:18.979Z,21.53
2019-04-30T11:12:48.105Z,33.00
2019-04-30T11:15:16.782Z,30.40
2019-04-30T11:17:45.734Z,38.97
2019-04-30T11:20:15.128Z,32.45
2019-04-30T11:22:44.405Z,33.08
2019-04-30T11:25:13.803Z,34.83
2019-04-30T11:27:43.592Z,32.35
2019-04-30T11:30:22.932Z,31.27
2019-04-30T11:32:43.572Z,31.52
2019-04-30T11:35:12.806Z,31.23
2019-04-30T11:37:41.414Z,33.60
2019-04-30T11:40:11.757Z,34.38
2019-04-30T11:42:40.301Z,30.40
2019-04-30T11:45:09.443Z,41.40
2019-04-30T11:47:38.891Z,37.38
2019-04-30T11:50:09.322Z,36.45
2019-04-30T11:52:39.443Z,32.83
2019-04-30T11:55:09.623Z,37.03
2019-04-30T11:57:39.738Z,32.23
2019-04-30T12:00:11.171Z,29.40
2019-04-30T12:02:41.146Z,31.95
2019-04-30T12:05:10.538Z,35.33
2019-04-30T12:07:44.247Z,34.10
2019-04-30T12:10:14.692Z,36.63
2019-04-30T12:12:43.250Z,32.75
2019-04-30T12:15:13.782Z,36.98
2019-04-30T12:17:42.978Z,36.38
2019-04-30T12:20:11.763Z,35.03
2019-04-30T12:22:41.469Z,36.03
2019-04-30T12:25:10.565Z,36.08
2019-04-30T12:27:39.268Z,35.80
2019-04-30T12:30:08.547Z,30.97
2019-04-30T12:32:39.164Z,36.90
2019-04-30T12:35:07.758Z,29.92
2019-04-30T12:37:36.342Z,30.65
2019-04-30T12:40:06.770Z,31.00
2019-04-30T12:42:35.386Z,28.65
2019-04-30T12:45:04.954Z,30.72
2019-04-30T12:47:35.687Z,29.25
2019-04-30T12:50:19.428Z,31.84
2019-04-30T12:52:55.479Z,29.75
2019-04-30T12:55:25.947Z,27.67
2019-04-30T12:58:01.524Z,31.25
2019-04-30T13:00:30.717Z,30.92
2019-04-30T13:02:59.334Z,29.27
2019-04-30T13:05:29.605Z,32.85
2019-04-30T13:08:00.024Z,26.03
2019-04-30T13:10:29.833Z,30.27
2019-04-30T13:12:59.490Z,28.47
2019-04-30T13:15:28.799Z,28.45
2019-04-30T13:17:58.555Z,31.73
2019-04-30T13:20:29.291Z,28.23
2019-04-30T13:22:58.923Z,28.90
2019-04-30T13:25:35.017Z,27.15
2019-04-30T13:27:59.900Z,26.03
2019-04-30T13:30:30.538Z,24.73
2019-04-30T13:33:09.589Z,27.45
2019-04-30T13:35:38.934Z,30.43
2019-04-30T13:38:09.378Z,27.32
2019-04-30T13:40:45.437Z,24.75
2019-04-30T13:43:15.968Z,25.83
2019-04-30T13:45:45.188Z,26.82
2019-04-30T13:48:13.950Z,25.67
2019-04-30T13:50:42.842Z,28.10
2019-04-30T13:53:11.549Z,26.80
2019-04-30T13:55:45.616Z,27.70
2019-04-30T13:58:10.942Z,26.50
2019-04-30T14:00:39.845Z,24.37
2019-04-30T14:03:15.893Z,25.05
2019-04-30T14:05:45.006Z,23.55
2019-04-30T14:08:15.406Z,22.37
2019-04-30T14:10:44.602Z,20.82
2019-04-30T14:13:13.702Z,22.37
2019-04-30T14:15:43.506Z,24.27
2019-04-30T14:18:12.708Z,24.18
2019-04-30T14:20:42.025Z,25.80
2019-04-30T14:23:10.891Z,24.07
2019-04-30T14:25:39.478Z,18.48
2019-04-30T14:28:09.465Z,19.15
2019-04-30T14:30:39.244Z,27.22
2019-04-30T14:33:09.454Z,23.45
2019-04-30T14:35:38.683Z,16.00
2019-04-30T14:38:09.040Z,24.00
2019-04-30T14:40:40.497Z,23.27
2019-04-30T14:43:10.642Z,16.77
2019-04-30T14:45:50.478Z,19.42
2019-04-30T14:48:23.504Z,23.27
2019-04-30T14:50:51.412Z,18.52
2019-04-30T14:53:23.474Z,20.57
2019-04-30T14:56:15.978Z,16.65
2019-04-30T14:58:51.259Z,19.32
2019-04-30T15:01:37.149Z,16.17
2019-04-30T15:04:06.645Z,17.88
2019-04-30T15:06:35.740Z,20.20
2019-04-30T15:09:07.408Z,18.32
2019-04-30T15:11:41.679Z,20.08
2019-04-30T15:14:16.352Z,19.50
2019-04-30T15:16:48.975Z,20.55
2019-04-30T15:19:54.097Z,20.75
2019-04-30T15:22:21.434Z,17.57
2019-04-30T15:24:52.108Z,17.90
2019-04-30T15:27:29.107Z,18.37
2019-04-30T15:29:57.525Z,18.85
2019-04-30T15:32:28.457Z,22.37
2019-04-30T15:34:58.780Z,19.57
2019-04-30T15:37:36.369Z,21.53
2019-04-30T15:40:08.955Z,25.10
2019-04-30T15:42:40.273Z,25.57
2019-04-30T15:45:09.301Z,25.32
2019-04-30T15:47:38.738Z,23.83
2019-04-30T15:50:09.783Z,24.32
2019-04-30T15:52:38.714Z,22.73
2019-04-30T15:55:09.210Z,18.40
2019-04-30T15:57:39.547Z,20.85
2019-04-30T16:00:08.544Z,18.70
2019-04-30T16:02:39.188Z,20.37
2019-04-30T16:05:12.768Z,20.35
2019-04-30T16:07:43.291Z,22.98
2019-04-30T16:10:19.681Z,20.43
2019-04-30T16:13:03.252Z,20.87
2019-04-30T16:15:32.308Z,20.67
2019-04-30T16:18:05.490Z,19.77
2019-04-30T16:20:34.675Z,19.90
2019-04-30T16:23:03.869Z,21.25
2019-04-30T16:25:32.563Z,23.18
2019-04-30T16:28:01.652Z,22.37
2019-04-30T16:30:30.437Z,20.25
2019-04-30T16:32:59.700Z,23.07
2019-04-30T16:35:29.534Z,20.27
2019-04-30T16:37:59.487Z,21.03
2019-04-30T16:40:29.027Z,21.53
2019-04-30T16:42:58.790Z,24.52
2019-04-30T16:45:29.048Z,30.70
2019-04-30T16:47:59.546Z,23.27
2019-04-30T16:50:29.947Z,24.57
2019-04-30T16:52:58.937Z,25.50
2019-04-30T16:55:30.389Z,21.48
2019-04-30T16:57:59.091Z,22.35
2019-04-30T17:00:30.813Z,21.87
2019-04-30T17:03:04.018Z,23.10
2019-04-30T17:05:43.556Z,21.80
2019-04-30T17:08:14.340Z,19.90
2019-04-30T17:10:44.511Z,22.20
2019-04-30T17:13:32.651Z,20.37
2019-04-30T17:16:03.285Z,24.35
2019-04-30T17:18:32.277Z,24.95
2019-04-30T17:21:01.373Z,22.87
2019-04-30T17:23:30.255Z,26.83
2019-04-30T17:25:58.962Z,22.67
2019-04-30T17:28:29.402Z,20.90
2019-04-30T17:30:58.868Z,19.13
2019-04-30T17:33:29.288Z,19.62
2019-04-30T17:35:58.480Z,16.47
2019-04-30T17:38:28.911Z,14.45
2019-04-30T17:40:58.006Z,11.28
2019-04-30T17:43:28.531Z,14.45
2019-04-30T17:45:58.906Z,11.55
2019-04-30T17:48:30.909Z,11.85
2019-04-30T17:50:59.616Z,16.10
2019-04-30T17:53:30.151Z,14.17
2019-04-30T17:55:59.435Z,10.88
2019-04-30T17:58:28.137Z,12.82
2019-04-30T18:01:00.384Z,11.93
2019-04-30T18:03:29.006Z,11.60
2019-04-30T18:05:59.258Z,10.80
2019-04-30T18:08:28.384Z,15.63
2019-04-30T18:10:57.580Z,16.35
2019-04-30T18:13:26.876Z,14.97
2019-04-30T18:15:55.772Z,11.80
2019-04-30T18:18:28.959Z,13.37
2019-04-30T18:21:13.535Z,11.53
2019-04-30T18:23:53.052Z,11.70
2019-04-30T18:26:22.886Z,15.90
2019-04-30T18:28:51.556Z,11.30
2019-04-30T18:31:23.304Z,11.48
2019-04-30T18:33:52.192Z,26.23
2019-04-30T18:36:24.765Z,13.10
2019-04-30T18:38:53.803Z,15.58
2019-04-30T18:41:22.468Z,22.60
2019-04-30T18:43:54.350Z,16.07
2019-04-30T18:46:22.893Z,13.73
2019-04-30T18:48:52.856Z,11.22
2019-04-30T18:54:18.370Z,8.98
2019-04-30T18:56:49.597Z,12.13
2019-04-30T18:59:23.425Z,10.10
2019-04-30T19:01:53.104Z,9.40
2019-04-30T19:04:22.426Z,10.55
2019-04-30T19:06:57.463Z,10.97
2019-04-30T19:09:42.347Z,8.18
2019-04-30T19:12:29.239Z,10.10
2019-04-30T19:15:18.992Z,12.70
2019-04-30T19:18:05.684Z,8.18
2019-04-30T19:20:39.413Z,10.95
2019-04-30T19:23:09.956Z,11.50
2019-04-30T19:25:38.639Z,12.75
2019-04-30T19:28:13.625Z,9.50
2019-04-30T19:30:39.852Z,13.07
2019-04-30T19:33:08.866Z,11.12
2019-04-30T19:35:37.550Z,13.20
2019-04-30T19:38:06.731Z,10.55
2019-04-30T19:40:35.841Z,10.90
2019-04-30T19:43:05.944Z,12.55
2019-04-30T19:45:36.079Z,13.45
2019-04-30T19:48:05.888Z,9.97
2019-04-30T19:50:34.453Z,10.08
2019-04-30T19:53:03.359Z,8.38
2019-04-30T19:55:32.351Z,14.93
2019-04-30T19:58:01.235Z,11.73
2019-04-30T20:00:31.530Z,9.97
2019-04-30T20:03:01.272Z,12.28
2019-04-30T20:05:30.574Z,13.15
2019-04-30T20:07:59.685Z,13.20
2019-04-30T20:10:33.076Z,15.67
2019-04-30T20:13:03.290Z,15.08
2019-04-30T20:15:31.965Z,12.25
2019-04-30T20:18:01.083Z,14.70
2019-04-30T20:20:30.561Z,11.83
2019-04-30T20:22:59.643Z,15.65
2019-04-30T20:25:30.885Z,15.40
2019-04-30T20:28:00.161Z,18.85
2019-04-30T20:30:29.908Z,17.95
2019-04-30T20:32:59.522Z,16.55
2019-04-30T20:35:29.128Z,19.43
2019-04-30T20:41:05.504Z,20.48
2019-04-30T20:43:35.458Z,16.85
2019-04-30T20:46:04.673Z,17.60
2019-04-30T20:48:34.301Z,15.23
2019-04-30T20:51:02.908Z,19.87
2019-04-30T20:53:32.304Z,17.48
2019-04-30T20:56:01.375Z,15.10
2019-04-30T20:58:30.267Z,26.30
2019-04-30T21:01:04.070Z,20.60
2019-04-30T21:03:29.672Z,24.10
2019-04-30T21:06:00.522Z,24.10
2019-04-30T21:08:29.104Z,19.93
2019-04-30T21:10:59.361Z,26.13
2019-04-30T21:13:29.481Z,21.55
2019-04-30T21:15:59.485Z,21.35
2019-04-30T21:18:32.024Z,20.12
2019-04-30T21:20:59.683Z,23.65
2019-04-30T21:23:30.147Z,23.67
2019-04-30T21:25:59.144Z,31.00
2019-04-30T21:28:29.699Z,27.32
2019-04-30T21:31:00.368Z,27.13
2019-04-30T21:33:34.318Z,23.97
2019-04-30T21:36:08.781Z,21.75
2019-04-30T21:38:38.958Z,25.43
2019-04-30T21:41:09.954Z,21.60
2019-04-30T21:43:38.647Z,22.67
2019-04-30T21:46:09.369Z,22.85
2019-04-30T21:48:38.845Z,32.27
2019-04-30T21:51:09.389Z,25.50
2019-04-30T21:53:39.637Z,30.93
2019-04-30T21:56:08.509Z,27.95
2019-04-30T21:58:39.285Z,29.57
2019-04-30T22:01:10.900Z,25.75
2019-04-30T22:03:42.148Z,32.90
2019-04-30T22:06:10.975Z,29.43
2019-04-30T22:08:39.516Z,33.75
2019-04-30T22:11:09.789Z,31.68
2019-04-30T22:13:40.045Z,28.57
2019-04-30T22:16:09.555Z,34.92
2019-04-30T22:18:38.143Z,27.55
2019-04-30T22:21:06.729Z,30.85
2019-04-30T22:23:35.735Z,30.10
2019-04-30T22:26:05.627Z,32.40
2019-04-30T22:28:34.218Z,31.10
2019-04-30T22:31:03.100Z,31.12
2019-04-30T22:33:31.683Z,38.38
2019-04-30T22:36:02.104Z,34.97
2019-04-30T22:38:32.536Z,40.77
2019-04-30T22:41:01.119Z,40.03
2019-04-30T22:43:30.005Z,35.67
2019-04-30T22:46:03.091Z,32.07
2019-04-30T22:48:32.183Z,36.33
2019-04-30T22:51:01.383Z,36.58
2019-04-30T22:53:30.271Z,33.63
2019-04-30T22:55:58.869Z,33.95
2019-04-30T22:58:29.400Z,27.95
2019-04-30T23:01:08.482Z,31.67
2019-04-30T23:03:37.093Z,37.85
2019-04-30T23:06:06.705Z,31.57
2019-04-30T23:08:35.896Z,37.43
2019-04-30T23:11:06.011Z,36.53
2019-04-30T23:13:34.591Z,36.38
2019-04-30T23:16:03.503Z,35.25
2019-04-30T23:18:32.321Z,35.60
2019-04-30T23:21:01.263Z,35.63
2019-04-30T23:23:29.849Z,32.85
2019-04-30T23:25:58.738Z,35.67
2019-04-30T23:28:28.956Z,36.10
2019-04-30T23:30:57.537Z,36.98
2019-04-30T23:33:26.636Z,37.95
2019-04-30T23:35:55.523Z,33.67
2019-04-30T23:38:24.413Z,34.97
2019-04-30T23:40:53.303Z,36.17
2019-04-30T23:43:21.883Z,36.67
2019-04-30T23:45:50.583Z,41.63
2019-04-30T23:48:20.788Z,36.20
2019-04-30T23:50:49.370Z,34.23
2019-04-30T23:53:17.953Z,33.53
2019-04-30T23:55:46.840Z,32.50
2019-04-30T23:58:15.727Z,34.50
